Time;durP1;ratioP1;P1;durP2;ratioP2;P2;SDS_P1;SDS_P2;PMS_P1;PMS_P2;Temp;Humidity;BMP_temperature;BMP_pressure;BME280_temperature;BME280_humidity;BME280_pressure;Samples;Min_cycle;Max_cycle;Signal;HPM_P1;HPM_P2
2021/03/24 00:02:17;;;;;;;23.08;15.88;;;6.90;86.10;;;;;;5034623;28;20064;-75
2021/03/24 00:04:42;;;;;;;25.13;15.07;;;6.90;86.00;;;;;;5043330;28;20018;-75
2021/03/24 00:07:08;;;;;;;22.33;15.98;;;6.90;86.00;;;;;;5030752;28;20016;-75
2021/03/24 00:09:34;;;;;;;23.50;14.57;;;7.00;86.00;;;;;;5031359;28;20081;-74
2021/03/24 00:11:59;;;;;;;25.90;16.40;;;7.00;86.40;;;;;;5031077;28;20072;-74
2021/03/24 00:14:25;;;;;;;28.15;16.10;;;6.90;86.40;;;;;;5012563;28;20196;-73
2021/03/24 00:16:51;;;;;;;26.60;15.90;;;6.90;86.40;;;;;;5012584;28;20010;-74
2021/03/24 00:19:16;;;;;;;30.75;17.60;;;6.90;86.40;;;;;;5030932;28;20077;-73
2021/03/24 00:21:42;;;;;;;29.02;17.80;;;6.90;86.00;;;;;;5012508;28;20223;-74
2021/03/24 00:24:08;;;;;;;26.77;17.38;;;6.90;85.90;;;;;;5028757;28;20014;-74
2021/03/24 00:26:33;;;;;;;19.77;12.50;;;6.90;85.60;;;;;;4995717;28;20014;-73
2021/03/24 00:28:59;;;;;;;21.45;14.30;;;7.00;85.60;;;;;;5031453;28;20086;-75
2021/03/24 00:31:25;;;;;;;26.17;16.73;;;7.00;84.30;;;;;;5014424;28;20078;-74
2021/03/24 00:33:50;;;;;;;30.88;19.55;;;7.10;83.10;;;;;;5036971;28;20014;-75
2021/03/24 00:36:17;;;;;;;26.00;17.27;;;7.10;82.50;;;;;;5050725;28;20326;-75
2021/03/24 00:38:42;;;;;;;28.17;17.83;;;7.10;83.40;;;;;;5049621;28;20021;-75
2021/03/24 00:41:08;;;;;;;24.30;16.50;;;7.10;83.80;;;;;;5035836;28;20070;-75
2021/03/24 00:43:34;;;;;;;28.63;18.75;;;7.10;83.90;;;;;;5019164;28;20018;-74
2021/03/24 00:45:59;;;;;;;34.53;22.42;;;7.10;84.20;;;;;;5036558;28;20012;-75
2021/03/24 00:48:30;;;;;;;36.75;24.23;;;7.10;84.70;;;;;;5035823;28;20049;-75
2021/03/24 00:50:56;;;;;;;34.22;22.15;;;7.00;84.80;;;;;;5033627;28;20014;-75
2021/03/24 00:53:22;;;;;;;37.92;22.73;;;7.00;84.90;;;;;;5053652;28;20085;-75
2021/03/24 00:55:47;;;;;;;39.45;24.17;;;7.00;85.30;;;;;;5036990;28;20425;-74
2021/03/24 00:58:13;;;;;;;35.33;22.35;;;7.00;85.80;;;;;;5083798;28;20340;-74
2021/03/24 01:00:39;;;;;;;34.05;21.70;;;7.00;86.30;;;;;;5094149;28;20015;-75
2021/03/24 01:03:05;;;;;;;42.08;26.65;;;7.00;86.90;;;;;;5055925;28;20328;-75
2021/03/24 01:05:31;;;;;;;42.53;24.55;;;6.90;87.50;;;;;;5059793;28;20008;-75
2021/03/24 01:08:08;;;;;;;42.30;24.42;;;6.90;87.60;;;;;;5058090;28;20072;-74
2021/03/24 01:10:35;;;;;;;42.97;24.63;;;6.90;87.60;;;;;;5074631;28;20024;-75
2021/03/24 01:13:00;;;;;;;41.30;24.48;;;6.80;87.90;;;;;;5056934;28;20039;-75
2021/03/24 01:15:26;;;;;;;45.15;25.65;;;6.80;88.30;;;;;;5057158;28;20016;-75
2021/03/24 01:17:53;;;;;;;44.08;27.15;;;6.70;88.50;;;;;;5057153;28;20063;-75
2021/03/24 01:20:19;;;;;;;50.80;29.27;;;6.70;88.80;;;;;;5037085;28;20029;-75
2021/03/24 01:22:44;;;;;;;50.95;30.30;;;6.70;88.90;;;;;;5036631;28;20021;-74
2021/03/24 01:25:10;;;;;;;51.55;30.08;;;6.60;89.20;;;;;;5039690;28;20044;-74
2021/03/24 01:27:36;;;;;;;49.58;28.75;;;6.50;89.40;;;;;;5056438;28;20067;-74
2021/03/24 01:30:02;;;;;;;49.45;28.63;;;6.50;89.60;;;;;;5056408;28;20013;-75
2021/03/24 01:32:28;;;;;;;50.78;29.83;;;6.50;89.70;;;;;;5055579;28;20088;-75
2021/03/24 01:34:53;;;;;;;47.78;26.13;;;6.40;89.70;;;;;;5053779;28;20009;-74
2021/03/24 01:37:19;;;;;;;45.03;26.73;;;6.50;89.70;;;;;;5054556;28;20013;-74
2021/03/24 01:39:45;;;;;;;47.00;27.23;;;6.50;89.70;;;;;;5054057;28;20202;-74
2021/03/24 01:42:11;;;;;;;50.00;29.90;;;6.40;89.80;;;;;;5053862;28;20115;-74
2021/03/24 01:45:15;;;;;;;47.80;27.35;;;6.40;89.60;;;;;;5055286;28;20040;-74
2021/03/24 01:47:41;;;;;;;47.60;28.05;;;6.40;89.90;;;;;;5011054;28;20037;-75
2021/03/24 01:50:22;;;;;;;47.55;26.90;;;6.40;89.90;;;;;;4978718;28;20019;-74
2021/03/24 01:52:48;;;;;;;45.17;25.90;;;6.40;89.90;;;;;;5046511;28;20124;-74
2021/03/24 01:55:14;;;;;;;46.88;26.50;;;6.40;90.00;;;;;;5054727;28;20012;-75
2021/03/24 01:57:39;;;;;;;51.92;27.00;;;6.40;90.00;;;;;;5076026;28;20012;-75
2021/03/24 02:00:36;;;;;;;45.22;24.73;;;6.40;90.00;;;;;;5059167;28;20036;-75
2021/03/24 02:03:03;;;;;;;46.53;24.90;;;6.40;89.90;;;;;;5062030;28;20114;-74
2021/03/24 02:05:29;;;;;;;43.70;24.38;;;6.40;89.90;;;;;;5059581;28;20009;-74
2021/03/24 02:08:10;;;;;;;41.75;24.23;;;6.40;90.00;;;;;;5075645;28;20009;-74
2021/03/24 02:11:11;;;;;;;42.58;25.90;;;6.40;89.90;;;;;;5077305;28;20013;-74
2021/03/24 02:13:50;;;;;;;43.03;24.30;;;6.40;89.80;;;;;;5061657;28;20108;-74
2021/03/24 02:16:24;;;;;;;44.83;27.15;;;6.40;89.80;;;;;;5076656;28;20111;-74
2021/03/24 02:18:50;;;;;;;43.83;25.45;;;6.40;89.60;;;;;;5076110;28;20233;-74
2021/03/24 02:21:18;;;;;;;37.90;22.05;;;6.30;89.20;;;;;;5059012;28;20005;-74
2021/03/24 02:23:49;;;;;;;48.72;27.83;;;6.40;88.60;;;;;;5043035;28;20110;-74
2021/03/24 02:26:18;;;;;;;41.47;25.23;;;6.40;87.60;;;;;;5059065;28;20027;-75
2021/03/24 02:28:44;;;;;;;40.38;23.52;;;6.30;87.40;;;;;;5058713;28;20385;-74
2021/03/24 02:31:09;;;;;;;38.95;23.88;;;6.30;87.30;;;;;;5091808;28;20028;-74
2021/03/24 02:33:37;;;;;;;34.83;21.10;;;6.40;87.20;;;;;;5084939;28;20017;-74
2021/03/24 02:36:04;;;;;;;38.00;22.58;;;6.40;87.10;;;;;;5054552;28;20005;-75
2021/03/24 02:38:31;;;;;;;33.90;20.02;;;6.40;86.20;;;;;;5038521;28;20012;-74
2021/03/24 02:40:57;;;;;;;38.17;23.60;;;6.40;86.10;;;;;;5038783;28;20072;-75
2021/03/24 02:43:25;;;;;;;34.70;20.45;;;6.40;86.00;;;;;;5038642;28;20021;-74
2021/03/24 02:45:51;;;;;;;35.10;21.15;;;6.40;84.70;;;;;;5055105;28;20077;-75
2021/03/24 02:48:24;;;;;;;28.90;18.15;;;6.40;85.80;;;;;;5055291;28;20009;-75
2021/03/24 02:50:51;;;;;;;29.92;17.15;;;6.40;85.30;;;;;;5055843;28;20004;-76
2021/03/24 02:53:17;;;;;;;26.52;17.67;;;6.40;83.80;;;;;;5038836;28;20052;-76
2021/03/24 02:55:43;;;;;;;30.92;16.42;;;6.40;83.10;;;;;;5054671;28;20017;-76
2021/03/24 02:58:09;;;;;;;25.25;16.00;;;6.40;83.00;;;;;;5055143;28;20294;-75
2021/03/24 03:00:35;;;;;;;26.73;15.88;;;6.40;83.10;;;;;;5072941;28;20001;-74
2021/03/24 03:03:21;;;;;;;25.83;15.23;;;6.40;83.20;;;;;;5055563;28;20081;-75
2021/03/24 03:05:46;;;;;;;25.48;16.42;;;6.40;82.70;;;;;;5072502;28;20008;-74
2021/03/24 03:08:30;;;;;;;26.85;17.40;;;6.40;81.50;;;;;;5055413;28;20031;-75
2021/03/24 03:10:59;;;;;;;25.33;16.15;;;6.40;81.70;;;;;;5055452;28;20004;-74
2021/03/24 03:13:28;;;;;;;24.52;15.75;;;6.40;81.50;;;;;;5038964;28;20020;-75
2021/03/24 03:16:12;;;;;;;25.45;15.98;;;6.40;81.50;;;;;;5055235;28;20032;-75
2021/03/24 03:18:39;;;;;;;23.45;15.05;;;6.40;81.40;;;;;;5054663;28;20009;-74
2021/03/24 03:21:09;;;;;;;29.40;16.75;;;6.40;81.60;;;;;;5055072;28;20001;-74
2021/03/24 03:23:35;;;;;;;22.98;15.48;;;6.40;81.30;;;;;;5039202;28;20199;-74
2021/03/24 03:26:13;;;;;;;27.60;15.32;;;6.40;81.40;;;;;;5055096;28;20055;-75
2021/03/24 03:28:39;;;;;;;25.05;15.35;;;6.40;81.00;;;;;;5043260;28;20005;-74
2021/03/24 03:31:15;;;;;;;22.33;14.43;;;6.40;81.10;;;;;;5058163;28;20016;-74
2021/03/24 03:33:42;;;;;;;24.38;14.75;;;6.40;80.70;;;;;;5055223;28;20020;-74
2021/03/24 03:36:08;;;;;;;28.63;15.95;;;6.40;80.60;;;;;;5055064;28;20005;-74
2021/03/24 03:38:34;;;;;;;20.30;13.52;;;6.40;80.30;;;;;;5054844;28;20016;-74
2021/03/24 03:40:59;;;;;;;20.88;14.40;;;6.50;80.60;;;;;;5038293;28;20009;-74
2021/03/24 03:43:25;;;;;;;21.40;14.27;;;6.50;80.80;;;;;;5054834;28;20037;-74
2021/03/24 03:45:51;;;;;;;19.95;13.52;;;6.50;80.90;;;;;;5055114;28;20006;-74
2021/03/24 03:48:18;;;;;;;19.20;12.55;;;6.40;80.90;;;;;;5054658;28;20320;-75
2021/03/24 03:50:43;;;;;;;21.35;12.77;;;6.40;81.00;;;;;;5055011;28;20001;-74
2021/03/24 03:53:18;;;;;;;18.95;13.27;;;6.50;81.10;;;;;;5067685;28;20032;-74
2021/03/24 03:56:03;;;;;;;21.65;14.05;;;6.50;80.80;;;;;;5058917;28;20008;-74
2021/03/24 03:58:32;;;;;;;20.42;13.70;;;6.50;80.80;;;;;;5059453;28;20009;-74
2021/03/24 04:01:16;;;;;;;19.33;12.70;;;6.50;81.00;;;;;;5041028;28;20012;-74
2021/03/24 04:03:47;;;;;;;20.40;13.63;;;6.50;80.90;;;;;;5055890;28;20026;-74
2021/03/24 04:06:16;;;;;;;20.42;13.25;;;6.50;80.70;;;;;;5058514;28;20084;-75
2021/03/24 04:08:41;;;;;;;20.65;13.35;;;6.50;80.80;;;;;;5041332;28;20028;-74
2021/03/24 04:11:09;;;;;;;19.75;13.57;;;6.50;81.00;;;;;;5057817;28;20016;-75
2021/03/24 04:13:37;;;;;;;20.98;13.70;;;6.50;80.80;;;;;;5066643;28;20073;-74
2021/03/24 04:16:04;;;;;;;16.52;11.85;;;6.50;80.90;;;;;;5051536;28;20073;-74
2021/03/24 04:19:00;;;;;;;21.67;13.93;;;6.50;80.80;;;;;;5018608;28;19997;-74
2021/03/24 04:21:26;;;;;;;18.67;12.40;;;6.50;80.70;;;;;;5053795;28;20032;-75
2021/03/24 04:23:56;;;;;;;19.30;14.05;;;6.50;80.90;;;;;;5072796;28;20035;-74
2021/03/24 04:26:38;;;;;;;19.60;13.60;;;6.50;80.90;;;;;;5041417;28;20016;-74
2021/03/24 04:29:07;;;;;;;21.92;14.35;;;6.50;81.30;;;;;;5042327;28;20047;-74
2021/03/24 04:31:33;;;;;;;22.40;15.82;;;6.40;81.70;;;;;;5073450;28;20012;-73
2021/03/24 04:33:59;;;;;;;24.85;14.88;;;6.30;82.30;;;;;;5055939;28;20214;-73
2021/03/24 04:36:35;;;;;;;21.55;14.75;;;6.30;82.40;;;;;;5077146;28;20015;-73
2021/03/24 04:39:04;;;;;;;20.42;13.95;;;6.30;82.60;;;;;;5077611;28;20005;-73
2021/03/24 04:41:31;;;;;;;22.88;14.30;;;6.30;82.80;;;;;;5060194;28;20021;-74
2021/03/24 04:44:21;;;;;;;21.70;15.25;;;6.30;83.00;;;;;;5056168;28;20020;-73
2021/03/24 04:46:46;;;;;;;22.05;13.60;;;6.30;83.00;;;;;;5040914;28;20021;-76
2021/03/24 04:49:17;;;;;;;18.52;11.75;;;6.30;83.50;;;;;;5058414;28;20020;-74
2021/03/24 04:51:43;;;;;;;20.95;13.15;;;6.30;83.30;;;;;;5043627;28;20040;-74
2021/03/24 04:54:42;;;;;;;18.83;13.38;;;6.40;83.30;;;;;;5060754;28;20023;-74
2021/03/24 04:57:10;;;;;;;23.58;14.38;;;6.40;83.40;;;;;;4992334;28;20023;-74
2021/03/24 04:59:40;;;;;;;17.08;11.88;;;6.40;83.40;;;;;;4972778;28;20152;-74
2021/03/24 05:02:30;;;;;;;19.35;13.48;;;6.40;83.80;;;;;;4976919;28;20115;-74
2021/03/24 05:05:21;;;;;;;17.48;12.00;;;6.40;83.90;;;;;;4976372;28;20018;-74
2021/03/24 05:07:54;;;;;;;22.92;14.10;;;6.40;83.90;;;;;;4993631;28;20089;-74
2021/03/24 05:10:23;;;;;;;23.70;15.90;;;6.40;83.90;;;;;;4994499;28;20082;-74
2021/03/24 05:12:50;;;;;;;18.67;12.60;;;6.40;83.90;;;;;;4978606;28;20031;-74
2021/03/24 05:15:25;;;;;;;22.23;14.10;;;6.40;84.20;;;;;;4981289;28;20019;-74
2021/03/24 05:17:50;;;;;;;22.25;14.90;;;6.40;84.30;;;;;;4981417;28;20015;-75
2021/03/24 05:20:38;;;;;;;21.55;13.57;;;6.40;84.10;;;;;;4997532;28;20038;-75
2021/03/24 05:23:08;;;;;;;19.15;13.13;;;6.40;84.20;;;;;;4977588;28;20011;-74
2021/03/24 05:25:41;;;;;;;24.27;13.80;;;6.40;84.20;;;;;;4988078;28;20040;-75
2021/03/24 05:28:13;;;;;;;18.98;12.10;;;6.40;84.30;;;;;;4997953;28;20205;-75
2021/03/24 05:30:39;;;;;;;21.25;13.18;;;6.40;84.20;;;;;;5003699;28;20018;-75
2021/03/24 05:33:18;;;;;;;19.08;12.55;;;6.40;84.10;;;;;;5022058;28;20101;-75
2021/03/24 05:35:56;;;;;;;20.17;12.75;;;6.40;84.10;;;;;;5060748;28;20005;-75
2021/03/24 05:38:32;;;;;;;18.55;11.82;;;6.40;84.10;;;;;;5094383;28;20004;-75
2021/03/24 05:41:19;;;;;;;21.33;13.65;;;6.40;83.90;;;;;;5058781;28;20004;-75
2021/03/24 05:44:04;;;;;;;18.20;12.40;;;6.40;83.80;;;;;;5075314;28;20036;-75
2021/03/24 05:46:42;;;;;;;20.77;13.30;;;6.40;83.80;;;;;;5093015;28;20408;-75
2021/03/24 05:49:29;;;;;;;21.83;13.68;;;6.40;83.70;;;;;;5058895;28;20016;-75
2021/03/24 05:52:28;;;;;;;20.92;13.98;;;6.40;83.80;;;;;;5071463;28;20032;-74
2021/03/24 05:55:00;;;;;;;21.67;13.68;;;6.30;83.90;;;;;;5040785;28;20016;-75
2021/03/24 05:57:49;;;;;;;;;;;6.30;84.10;;;;;;5038961;28;20009;-75
2021/03/24 06:00:27;;;;;;;18.23;12.02;;;6.30;84.20;;;;;;5068102;28;19901;-75
2021/03/24 06:03:08;;;;;;;22.27;13.95;;;6.30;84.40;;;;;;5038419;28;20013;-75
2021/03/24 06:05:39;;;;;;;20.52;12.85;;;6.20;84.50;;;;;;5073158;28;20017;-76
2021/03/24 06:08:31;;;;;;;19.77;13.40;;;6.20;84.70;;;;;;5055174;28;20021;-75
2021/03/24 06:11:11;;;;;;;21.20;14.02;;;6.20;84.80;;;;;;5036830;28;20021;-75
2021/03/24 06:14:05;;;;;;;22.50;15.55;;;6.20;84.60;;;;;;5070704;28;20390;-75
2021/03/24 06:17:02;;;;;;;19.27;12.70;;;6.30;84.30;;;;;;5064498;28;20062;-75
2021/03/24 06:19:33;;;;;;;21.48;12.73;;;6.40;84.20;;;;;;5077877;28;20013;-75
2021/03/24 06:22:29;;;;;;;20.58;13.75;;;6.50;83.90;;;;;;5075768;28;20042;-75
2021/03/24 06:25:10;;;;;;;19.52;12.73;;;6.50;83.50;;;;;;5061233;28;20054;-75
2021/03/24 06:27:39;;;;;;;17.60;12.38;;;6.60;83.40;;;;;;5069686;28;20017;-75
2021/03/24 06:30:20;;;;;;;17.48;11.98;;;6.70;83.00;;;;;;5072167;28;20027;-75
2021/03/24 06:32:59;;;;;;;20.92;13.82;;;6.70;82.90;;;;;;5089244;28;20025;-75
2021/03/24 06:35:40;;;;;;;20.77;13.45;;;6.70;82.50;;;;;;5073565;28;20013;-75
2021/03/24 06:38:17;;;;;;;22.27;13.15;;;6.70;82.60;;;;;;5089061;28;20023;-75
2021/03/24 06:41:02;;;;;;;15.70;10.38;;;6.70;82.70;;;;;;5075386;28;20015;-75
2021/03/24 06:43:49;;;;;;;16.60;11.80;;;6.80;82.40;;;;;;5095130;28;20012;-76
2021/03/24 06:46:15;;;;;;;19.98;13.18;;;6.80;82.10;;;;;;5085838;28;20067;-76
2021/03/24 06:48:48;;;;;;;17.70;12.23;;;6.70;82.20;;;;;;5066723;28;20359;-76
2021/03/24 06:51:36;;;;;;;17.42;11.52;;;6.80;82.10;;;;;;5078082;28;20012;-76
2021/03/24 06:54:40;;;;;;;16.83;12.90;;;6.80;81.80;;;;;;5065847;28;20274;-76
2021/03/24 06:57:33;;;;;;;20.08;12.05;;;6.90;81.60;;;;;;5050715;28;20013;-76
2021/03/24 07:00:08;;;;;;;20.95;13.73;;;6.90;81.60;;;;;;5037028;28;20005;-77
2021/03/24 07:03:21;;;;;;;21.73;15.00;;;6.90;81.20;;;;;;5067801;28;20013;-76
2021/03/24 07:05:58;;;;;;;19.50;14.05;;;7.00;81.00;;;;;;5058961;28;20094;-75
2021/03/24 07:08:53;;;;;;;19.50;13.60;;;7.00;80.60;;;;;;5067556;28;20024;-75
2021/03/24 07:11:34;;;;;;;22.85;16.65;;;7.10;80.70;;;;;;5043768;28;20029;-75
2021/03/24 07:14:33;;;;;;;26.38;16.65;;;7.10;80.40;;;;;;5062226;28;20308;-75
2021/03/24 07:17:09;;;;;;;23.33;15.50;;;7.10;80.40;;;;;;5054938;28;20025;-76
2021/03/24 07:19:54;;;;;;;16.95;12.40;;;7.20;80.10;;;;;;5035558;28;20092;-76
2021/03/24 07:22:29;;;;;;;26.25;17.52;;;7.30;79.80;;;;;;5062611;28;20058;-75
2021/03/24 07:25:46;;;;;;;20.42;15.45;;;7.30;79.40;;;;;;5059386;28;20036;-77
2021/03/24 07:28:41;;;;;;;20.05;14.40;;;7.30;79.70;;;;;;4952656;28;20072;-75
2021/03/24 07:31:28;;;;;;;23.00;17.27;;;7.30;79.80;;;;;;4976993;28;20359;-75
2021/03/24 07:33:59;;;;;;;20.80;15.52;;;7.20;79.50;;;;;;4996976;28;20061;-75
2021/03/24 07:36:44;;;;;;;19.33;14.23;;;7.30;79.60;;;;;;4976619;28;20096;-75
2021/03/24 07:39:45;;;;;;;18.15;13.25;;;7.30;79.60;;;;;;4987804;28;20018;-74
2021/03/24 07:42:28;;;;;;;22.23;15.93;;;7.40;79.50;;;;;;4995340;28;20109;-75
2021/03/24 07:45:15;;;;;;;30.35;19.75;;;7.40;79.40;;;;;;5002511;28;20026;-74
2021/03/24 07:47:59;;;;;;;21.48;16.17;;;7.40;79.30;;;;;;5014844;28;20022;-75
2021/03/24 07:50:36;;;;;;;21.88;16.42;;;7.50;79.50;;;;;;4999964;28;20343;-75
2021/03/24 07:53:23;;;;;;;22.70;16.35;;;7.50;79.30;;;;;;5002960;28;20069;-76
2021/03/24 07:56:25;;;;;;;22.95;15.90;;;7.50;79.40;;;;;;4999410;28;20017;-75
2021/03/24 07:59:08;;;;;;;21.10;15.50;;;7.50;79.40;;;;;;4974511;28;20611;-76
2021/03/24 08:02:00;;;;;;;21.15;15.32;;;7.60;79.20;;;;;;4985119;28;20014;-76
2021/03/24 08:04:58;;;;;;;22.67;15.43;;;7.60;78.90;;;;;;5053492;28;20063;-75
2021/03/24 08:07:41;;;;;;;21.65;15.75;;;7.60;78.80;;;;;;5050135;28;20044;-76
2021/03/24 08:10:21;;;;;;;24.08;16.17;;;7.60;79.10;;;;;;5052195;28;20058;-75
2021/03/24 08:12:54;;;;;;;19.60;14.85;;;7.60;79.20;;;;;;5071116;28;21020;-77
2021/03/24 08:15:29;;;;;;;24.40;16.92;;;7.70;78.80;;;;;;5053464;28;20033;-74
2021/03/24 08:18:35;;;;;;;21.05;15.80;;;7.80;78.30;;;;;;5070909;28;20201;-75
2021/03/24 08:21:25;;;;;;;24.45;17.00;;;7.90;78.00;;;;;;5071591;28;20036;-75
2021/03/24 08:24:03;;;;;;;21.83;16.38;;;8.10;77.50;;;;;;5063049;28;20088;-74
2021/03/24 08:26:47;;;;;;;24.15;13.85;;;8.10;77.10;;;;;;5069873;28;20332;-75
2021/03/24 08:29:16;;;;;;;23.60;15.88;;;8.20;77.00;;;;;;5063395;28;20114;-75
2021/03/24 08:32:03;;;;;;;21.65;15.45;;;8.30;76.60;;;;;;5067263;28;20222;-75
2021/03/24 08:35:02;;;;;;;20.90;15.40;;;8.30;76.20;;;;;;5070464;28;20032;-75
2021/03/24 08:37:56;;;;;;;21.92;15.70;;;8.60;75.40;;;;;;5043795;28;20111;-75
2021/03/24 08:40:41;;;;;;;23.85;17.17;;;8.90;74.20;;;;;;5058840;28;20012;-76
2021/03/24 08:43:28;;;;;;;19.50;14.18;;;8.90;74.10;;;;;;5058814;28;20024;-75
2021/03/24 08:46:17;;;;;;;19.98;15.13;;;9.00;74.70;;;;;;5058880;28;20441;-74
2021/03/24 08:48:42;;;;;;;21.52;16.33;;;9.00;73.30;;;;;;5059113;28;20038;-76
2021/03/24 08:51:18;;;;;;;25.05;18.15;;;8.90;73.70;;;;;;5055740;28;20139;-75
2021/03/24 08:53:51;;;;;;;19.17;14.88;;;8.80;74.30;;;;;;5036769;28;20028;-75
2021/03/24 08:56:40;;;;;;;18.27;13.35;;;9.00;74.40;;;;;;5042526;28;20013;-76
2021/03/24 08:59:41;;;;;;;24.52;17.65;;;9.10;73.50;;;;;;5019565;28;20199;-73
2021/03/24 09:02:22;;;;;;;22.85;16.42;;;9.00;73.40;;;;;;5002721;28;21101;-75
2021/03/24 09:05:08;;;;;;;18.38;15.10;;;8.90;74.30;;;;;;5000533;28;20995;-73
2021/03/24 09:08:11;;;;;;;23.42;17.33;;;8.90;74.40;;;;;;5009563;28;20019;-76
2021/03/24 09:10:46;;;;;;;25.02;15.85;;;8.90;74.00;;;;;;5000884;28;20464;-78
2021/03/24 09:13:20;;;;;;;21.35;16.08;;;9.00;74.10;;;;;;5028795;28;22226;-78
2021/03/24 09:16:11;;;;;;;26.40;17.75;;;9.00;73.60;;;;;;5035889;28;20028;-77
2021/03/24 09:18:47;;;;;;;19.63;15.98;;;9.00;73.50;;;;;;5040331;28;20028;-77
2021/03/24 09:21:21;;;;;;;19.38;15.05;;;9.20;73.10;;;;;;5046336;28;20040;-76
2021/03/24 09:23:46;;;;;;;20.73;15.40;;;9.20;73.00;;;;;;5004052;28;20092;-79
2021/03/24 09:26:18;;;;;;;18.45;13.75;;;9.30;72.60;;;;;;5032698;28;20229;-77
2021/03/24 09:28:53;;;;;;;;;;;9.30;72.30;;;;;;5023217;28;20688;-77
2021/03/24 09:31:26;;;;;;;19.95;15.80;;;9.30;72.30;;;;;;5024740;28;19978;-77
2021/03/24 09:34:11;;;;;;;21.10;17.00;;;9.20;72.90;;;;;;5025972;28;20031;-76
2021/03/24 09:36:39;;;;;;;22.70;16.55;;;9.20;73.20;;;;;;5009175;28;20278;-76
2021/03/24 09:39:16;;;;;;;20.95;16.08;;;9.10;73.40;;;;;;5025206;28;20377;-78
2021/03/24 09:41:57;;;;;;;16.35;13.25;;;9.10;73.60;;;;;;5028449;28;20551;-77
2021/03/24 09:44:29;;;;;;;19.15;15.82;;;9.30;73.90;;;;;;5020625;28;20428;-77
2021/03/24 09:46:55;;;;;;;26.58;17.48;;;9.30;72.50;;;;;;5015241;28;20025;-76
2021/03/24 09:49:36;;;;;;;22.13;16.70;;;9.20;72.50;;;;;;5023528;28;20024;-78
2021/03/24 09:52:25;;;;;;;30.08;18.55;;;9.20;72.80;;;;;;5002761;28;23350;-75
2021/03/24 09:55:03;;;;;;;23.65;17.73;;;9.20;72.80;;;;;;5024092;28;20027;-75
2021/03/24 09:57:55;;;;;;;20.15;16.15;;;9.10;73.00;;;;;;5042358;28;20029;-75
2021/03/24 10:00:21;;;;;;;23.25;16.48;;;9.20;73.50;;;;;;4996143;28;20760;-74
2021/03/24 10:03:01;;;;;;;24.13;16.88;;;9.20;73.20;;;;;;5013873;28;20040;-76
2021/03/24 10:05:39;;;;;;;21.98;15.73;;;9.20;73.10;;;;;;5010928;28;20112;-76
2021/03/24 10:08:11;;;;;;;23.88;14.85;;;9.30;73.20;;;;;;5009701;28;20025;-74
2021/03/24 10:10:37;;;;;;;20.80;14.45;;;9.30;73.20;;;;;;4996034;28;20194;-75
2021/03/24 10:13:46;;;;;;;23.63;16.88;;;9.40;73.10;;;;;;5038834;28;20024;-74
2021/03/24 10:16:22;;;;;;;26.73;19.33;;;9.30;73.40;;;;;;4974777;28;20311;-74
2021/03/24 10:19:04;;;;;;;24.38;17.05;;;9.20;73.80;;;;;;4944582;28;20025;-75
2021/03/24 10:21:39;;;;;;;26.23;18.35;;;9.30;73.40;;;;;;4958026;28;20236;-75
2021/03/24 10:24:15;;;;;;;28.15;20.73;;;9.30;73.00;;;;;;4929172;28;20021;-76
2021/03/24 10:27:02;;;;;;;25.05;17.50;;;9.30;73.00;;;;;;4952706;28;20021;-76
2021/03/24 10:30:00;;;;;;;44.20;26.48;;;9.40;72.60;;;;;;4974413;28;20268;-77
2021/03/24 10:32:30;;;;;;;31.38;20.65;;;9.40;72.20;;;;;;4990701;28;20128;-77
2021/03/24 10:35:06;;;;;;;30.17;18.80;;;9.50;72.00;;;;;;4967894;28;20030;-74
2021/03/24 10:37:57;;;;;;;33.55;21.65;;;9.60;72.00;;;;;;4982736;28;20300;-75
2021/03/24 10:40:28;;;;;;;29.45;20.35;;;9.60;71.90;;;;;;4982129;28;20052;-77
2021/03/24 10:42:58;;;;;;;23.27;17.92;;;9.60;71.60;;;;;;4967226;28;20048;-74
2021/03/24 10:45:40;;;;;;;34.72;20.65;;;9.70;71.40;;;;;;4942557;28;20375;-74
2021/03/24 10:48:08;;;;;;;;;;;9.80;71.20;;;;;;4933561;28;20373;-75
2021/03/24 10:50:45;;;;;;;19.05;14.38;;;9.90;70.80;;;;;;5018660;28;19912;-74
2021/03/24 10:53:22;;;;;;;21.98;16.10;;;10.00;70.70;;;;;;5006569;28;20686;-76
2021/03/24 10:55:58;;;;;;;29.27;15.68;;;10.10;70.30;;;;;;5007961;28;20055;-76
2021/03/24 10:58:54;;;;;;;25.90;18.85;;;10.10;70.00;;;;;;4994418;28;20040;-75
2021/03/24 11:01:27;;;;;;;23.17;17.25;;;10.10;70.00;;;;;;4979161;28;20612;-75
2021/03/24 11:04:13;;;;;;;23.75;15.50;;;10.00;70.40;;;;;;5001879;28;20395;-75
2021/03/24 11:06:48;;;;;;;19.42;14.35;;;10.00;70.80;;;;;;5001864;28;20355;-76
2021/03/24 11:09:16;;;;;;;24.70;18.35;;;10.00;70.70;;;;;;5015241;28;20299;-74
2021/03/24 11:11:50;;;;;;;21.95;16.63;;;9.90;70.50;;;;;;5000140;28;20745;-76
2021/03/24 11:14:21;;;;;;;18.00;12.82;;;10.00;70.60;;;;;;5001446;28;20088;-77
2021/03/24 11:16:48;;;;;;;27.53;17.40;;;10.20;70.40;;;;;;4996755;28;20211;-77
2021/03/24 11:19:29;;;;;;;23.30;16.13;;;10.20;69.30;;;;;;5000268;28;20063;-77
2021/03/24 11:22:19;;;;;;;21.33;13.90;;;10.30;68.80;;;;;;5010797;28;20354;-77
2021/03/24 11:24:56;;;;;;;18.63;13.43;;;10.30;68.80;;;;;;5019406;28;20301;-76
2021/03/24 11:27:29;;;;;;;23.00;15.25;;;10.50;68.80;;;;;;5010645;28;20016;-76
2021/03/24 11:30:22;;;;;;;25.70;15.40;;;10.50;68.80;;;;;;5031106;28;20111;-76
2021/03/24 11:32:50;;;;;;;21.75;15.57;;;10.50;68.40;;;;;;5028595;28;20059;-76
2021/03/24 11:35:27;;;;;;;18.73;13.60;;;10.40;68.30;;;;;;5034826;28;20025;-76
2021/03/24 11:38:34;;;;;;;18.60;13.70;;;10.40;68.50;;;;;;5027171;28;20028;-77
2021/03/24 11:41:02;;;;;;;20.75;14.35;;;10.40;69.00;;;;;;5026608;28;20342;-77
2021/03/24 11:43:32;;;;;;;23.23;15.25;;;10.40;69.10;;;;;;5007752;28;20387;-76
2021/03/24 11:46:28;;;;;;;17.77;13.52;;;10.40;68.60;;;;;;5008602;28;20012;-76
2021/03/24 11:49:25;;;;;;;30.80;16.92;;;10.50;68.40;;;;;;5015127;28;20048;-76
2021/03/24 11:51:59;;;;;;;23.58;16.27;;;10.50;68.10;;;;;;5011741;28;20048;-76
2021/03/24 11:54:36;;;;;;;28.98;19.00;;;10.60;67.70;;;;;;5009728;28;20581;-75
2021/03/24 11:57:40;;;;;;;29.30;18.35;;;10.50;68.10;;;;;;5020491;28;20378;-76
2021/03/24 12:00:33;;;;;;;24.00;17.60;;;10.40;68.40;;;;;;5030837;28;20039;-75
2021/03/24 12:03:30;;;;;;;21.98;15.98;;;10.50;68.10;;;;;;5021616;28;20016;-75
2021/03/24 12:05:56;;;;;;;24.33;16.20;;;10.50;68.00;;;;;;5040423;28;20084;-74
2021/03/24 12:08:55;;;;;;;22.75;17.05;;;10.40;68.70;;;;;;5013416;28;20024;-76
2021/03/24 12:11:31;;;;;;;24.27;16.67;;;10.30;69.20;;;;;;4974293;28;20092;-76
2021/03/24 12:14:25;;;;;;;21.27;15.80;;;10.30;69.30;;;;;;4960051;28;20409;-76
2021/03/24 12:16:51;;;;;;;20.17;15.23;;;10.30;69.40;;;;;;4962830;28;20368;-76
2021/03/24 12:19:43;;;;;;;23.20;16.88;;;10.40;69.00;;;;;;4968760;28;20611;-76
2021/03/24 12:22:20;;;;;;;21.75;15.43;;;10.50;68.10;;;;;;4981705;28;20072;-75
2021/03/24 12:24:58;;;;;;;22.40;16.55;;;10.70;67.40;;;;;;4982884;28;20860;-75
2021/03/24 12:27:24;;;;;;;24.60;17.33;;;10.70;67.00;;;;;;4952390;28;20497;-75
2021/03/24 12:29:57;;;;;;;30.38;20.05;;;10.80;67.20;;;;;;4936834;28;20030;-76
2021/03/24 12:32:27;;;;;;;33.85;21.30;;;10.70;67.50;;;;;;4913453;28;20057;-75
2021/03/24 12:34:53;;;;;;;35.63;22.17;;;10.60;67.80;;;;;;4945476;28;20036;-75
2021/03/24 12:37:23;;;;;;;28.80;20.85;;;10.60;67.50;;;;;;4958881;28;20549;-75
2021/03/24 12:39:50;;;;;;;25.63;17.45;;;10.60;67.80;;;;;;4972185;28;20120;-75
2021/03/24 12:42:30;;;;;;;25.60;19.50;;;10.70;67.70;;;;;;4944697;28;20137;-75
2021/03/24 12:44:56;;;;;;;24.05;18.00;;;10.70;67.60;;;;;;4929424;28;21004;-75
2021/03/24 12:47:40;;;;;;;26.70;18.27;;;10.60;68.00;;;;;;4967951;28;20214;-73
2021/03/24 12:50:08;;;;;;;29.67;20.42;;;10.60;68.30;;;;;;5004319;28;20044;-73
2021/03/24 12:52:37;;;;;;;27.23;19.40;;;10.60;67.50;;;;;;5054653;28;20064;-76
2021/03/24 12:55:04;;;;;;;29.02;20.98;;;10.60;67.20;;;;;;5054003;28;20033;-76
2021/03/24 12:58:02;;;;;;;30.35;19.90;;;10.60;67.20;;;;;;5045157;28;20084;-76
2021/03/24 13:00:49;;;;;;;25.17;18.75;;;10.60;66.70;;;;;;5017848;28;22639;-75
2021/03/24 13:03:30;;;;;;;26.73;18.33;;;10.70;66.80;;;;;;5037904;28;20017;-75
2021/03/24 13:06:18;;;;;;;23.88;17.30;;;10.80;66.40;;;;;;5030708;28;20062;-74
2021/03/24 13:09:11;;;;;;;32.75;19.50;;;10.80;66.40;;;;;;4994158;28;20317;-76
2021/03/24 13:12:04;;;;;;;30.50;19.67;;;10.70;66.60;;;;;;5030569;28;20051;-76
2021/03/24 13:14:38;;;;;;;31.13;19.77;;;10.50;66.90;;;;;;5025625;28;20069;-74
2021/03/24 13:17:38;;;;;;;26.55;19.88;;;10.50;67.20;;;;;;5017961;28;20373;-75
2021/03/24 13:20:13;;;;;;;25.85;18.98;;;10.50;67.40;;;;;;5034650;28;20131;-75
2021/03/24 13:23:33;;;;;;;23.73;15.63;;;10.50;67.40;;;;;;5015926;28;20081;-76
2021/03/24 13:26:02;;;;;;;24.83;17.10;;;10.60;67.40;;;;;;4958530;28;20061;-76